Time;durP1;ratioP1;P1;durP2;ratioP2;P2;SDS_P1;SDS_P2;PMS_P1;PMS_P2;Temp;Humidity;BMP_temperature;BMP_pressure;BME280_temperature;BME280_humidity;BME280_pressure;Samples;Min_cycle;Max_cycle;Signal;HPM_P1;HPM_P2
2021/07/01 00:00:42;;;;;;;22.48;14.25;;;14.70;93.30;;;;;;4954835;28;20036;-81
2021/07/01 00:03:08;;;;;;;25.23;16.90;;;14.70;93.00;;;;;;4975831;28;20035;-81
2021/07/01 00:05:34;;;;;;;19.30;15.13;;;14.70;93.90;;;;;;4972145;28;20096;-81
2021/07/01 00:07:59;;;;;;;19.13;14.20;;;14.60;93.90;;;;;;4917297;28;20047;-81
2021/07/01 00:10:25;;;;;;;18.05;13.35;;;14.70;93.40;;;;;;4980176;28;20433;-80
2021/07/01 00:12:52;;;;;;;17.75;11.35;;;14.60;94.10;;;;;;4917633;28;20036;-80
2021/07/01 00:15:19;;;;;;;26.65;18.10;;;14.60;93.90;;;;;;4970832;28;20043;-80
2021/07/01 00:17:44;;;;;;;23.13;14.75;;;14.60;93.60;;;;;;4927099;28;20032;-80
2021/07/01 00:20:10;;;;;;;26.15;18.23;;;14.60;93.90;;;;;;4914999;28;20039;-81
2021/07/01 00:22:36;;;;;;;24.75;17.35;;;14.50;93.60;;;;;;4983801;28;20508;-81
2021/07/01 00:25:03;;;;;;;18.33;13.55;;;14.60;94.80;;;;;;4937949;28;20119;-81
2021/07/01 00:27:29;;;;;;;20.38;15.70;;;14.60;93.70;;;;;;4901516;28;20047;-81
2021/07/01 00:29:55;;;;;;;16.98;13.05;;;14.60;93.60;;;;;;4923486;28;20036;-82
2021/07/01 00:32:21;;;;;;;18.10;15.63;;;14.60;94.50;;;;;;4912129;28;20050;-82
2021/07/01 00:34:46;;;;;;;24.08;16.90;;;14.60;94.90;;;;;;4904735;28;20492;-81
2021/07/01 00:37:12;;;;;;;21.17;15.43;;;14.50;93.90;;;;;;4934286;28;20035;-81
2021/07/01 00:39:37;;;;;;;21.50;15.73;;;14.60;94.00;;;;;;4989057;28;20126;-81
2021/07/01 00:42:03;;;;;;;22.30;15.23;;;14.40;94.70;;;;;;4926030;28;20038;-82
2021/07/01 00:44:29;;;;;;;17.98;14.18;;;14.50;94.20;;;;;;4985875;28;20126;-82
2021/07/01 00:46:54;;;;;;;16.27;11.30;;;14.40;94.60;;;;;;4912326;28;20118;-81
2021/07/01 00:49:20;;;;;;;18.60;14.30;;;14.60;94.30;;;;;;5019079;28;20037;-82
2021/07/01 00:51:45;;;;;;;15.73;12.25;;;14.50;93.70;;;;;;4922390;28;20032;-82
2021/07/01 00:54:13;;;;;;;17.30;10.35;;;14.60;94.20;;;;;;4973438;28;20028;-81
2021/07/01 00:56:38;;;;;;;20.10;14.10;;;14.60;94.30;;;;;;4932465;28;20032;-81
2021/07/01 00:59:04;;;;;;;16.80;11.45;;;14.60;94.20;;;;;;4911696;28;20032;-81
2021/07/01 01:01:30;;;;;;;17.70;14.13;;;14.50;94.40;;;;;;4985517;28;20272;-82
2021/07/01 01:03:55;;;;;;;15.60;11.02;;;14.50;94.50;;;;;;4915777;28;20039;-81
2021/07/01 01:06:21;;;;;;;21.42;16.52;;;14.50;94.20;;;;;;4989668;28;20047;-81
2021/07/01 01:08:46;;;;;;;21.05;14.93;;;14.50;94.60;;;;;;4922485;28;20040;-82
2021/07/01 01:11:12;;;;;;;20.80;16.15;;;14.40;94.30;;;;;;4986910;28;20218;-82
2021/07/01 01:13:38;;;;;;;14.48;7.80;;;14.40;94.40;;;;;;4989004;28;20403;-82
2021/07/01 01:16:03;;;;;;;15.55;11.43;;;14.50;94.70;;;;;;4967884;28;20035;-81
2021/07/01 01:18:29;;;;;;;17.98;11.65;;;14.40;94.10;;;;;;4933608;28;20103;-82
2021/07/01 01:20:57;;;;;;;13.50;11.15;;;14.30;94.60;;;;;;4930852;28;20044;-82
2021/07/01 01:23:23;;;;;;;17.38;11.65;;;14.30;94.10;;;;;;4992979;28;20852;-81
2021/07/01 01:26:04;;;;;;;21.25;15.55;;;14.40;94.30;;;;;;4921750;28;20036;-82
2021/07/01 01:28:30;;;;;;;15.82;11.95;;;14.40;94.30;;;;;;4907660;28;20032;-81
2021/07/01 01:30:55;;;;;;;18.70;14.25;;;14.40;94.20;;;;;;4942481;28;20512;-81
2021/07/01 01:33:21;;;;;;;15.80;12.20;;;14.40;94.10;;;;;;4908382;28;20040;-82
2021/07/01 01:35:47;;;;;;;14.15;11.25;;;14.30;94.50;;;;;;4922038;28;20408;-81
2021/07/01 01:38:13;;;;;;;17.45;13.25;;;14.30;94.30;;;;;;4931405;28;20026;-81
2021/07/01 01:40:40;;;;;;;14.10;10.50;;;14.40;95.00;;;;;;4941997;28;20058;-82
2021/07/01 01:43:06;;;;;;;21.45;14.73;;;14.40;94.60;;;;;;4909564;28;20039;-81
2021/07/01 01:45:36;;;;;;;19.25;14.70;;;14.30;94.70;;;;;;4998212;28;20037;-81
2021/07/01 01:48:02;;;;;;;20.15;14.48;;;14.20;95.40;;;;;;4951771;28;20492;-81
2021/07/01 01:50:27;;;;;;;20.88;14.35;;;14.30;94.40;;;;;;4946854;28;20084;-81
2021/07/01 01:52:53;;;;;;;19.10;13.70;;;14.40;94.70;;;;;;4919542;28;20032;-81
2021/07/01 01:55:18;;;;;;;17.50;11.88;;;14.40;94.60;;;;;;4892985;28;20053;-81
2021/07/01 01:57:45;;;;;;;18.55;15.07;;;14.30;94.20;;;;;;4917855;28;20035;-81
2021/07/01 02:00:12;;;;;;;14.13;11.10;;;14.40;94.60;;;;;;4970988;28;20083;-81
2021/07/01 02:02:38;;;;;;;12.73;10.00;;;14.40;94.50;;;;;;4941033;28;20399;-81
2021/07/01 02:05:05;;;;;;;14.73;11.60;;;14.40;94.60;;;;;;4933939;28;20043;-81
2021/07/01 02:07:30;;;;;;;12.63;9.32;;;14.40;94.40;;;;;;4993931;28;20111;-80
2021/07/01 02:09:57;;;;;;;17.00;10.63;;;14.30;94.30;;;;;;4923218;28;20126;-81
2021/07/01 02:12:23;;;;;;;19.77;11.25;;;14.30;94.40;;;;;;4971460;28;20035;-81
2021/07/01 02:14:49;;;;;;;17.35;12.68;;;14.40;94.60;;;;;;4924555;28;20023;-81
2021/07/01 02:17:14;;;;;;;10.90;8.82;;;14.40;94.90;;;;;;4913230;28;20075;-81
2021/07/01 02:19:40;;;;;;;12.02;9.90;;;14.40;94.80;;;;;;4993536;28;20510;-81
2021/07/01 02:22:05;;;;;;;16.60;10.35;;;14.50;94.80;;;;;;4912259;28;20022;-81
2021/07/01 02:24:31;;;;;;;12.65;10.68;;;14.40;94.60;;;;;;4969842;28;20103;-82
2021/07/01 02:26:56;;;;;;;15.40;11.23;;;14.30;94.60;;;;;;4953230;28;20460;-81
2021/07/01 02:29:22;;;;;;;19.20;12.45;;;14.30;94.70;;;;;;4977384;28;20024;-81
2021/07/01 02:31:47;;;;;;;18.52;12.52;;;14.30;95.00;;;;;;4905248;28;20040;-82
2021/07/01 02:34:13;;;;;;;18.15;12.77;;;14.20;95.00;;;;;;4897713;28;20067;-81
2021/07/01 02:36:38;;;;;;;19.98;13.02;;;14.20;95.50;;;;;;4910327;28;20182;-81
2021/07/01 02:39:07;;;;;;;16.27;12.85;;;14.20;94.80;;;;;;4911854;28;20121;-81
2021/07/01 02:41:35;;;;;;;16.42;12.35;;;14.20;94.90;;;;;;4988051;28;20032;-81
2021/07/01 02:44:01;;;;;;;14.57;11.35;;;14.20;95.20;;;;;;4908761;28;20036;-81
2021/07/01 02:46:26;;;;;;;13.02;10.35;;;14.20;95.20;;;;;;4991245;28;20034;-81
2021/07/01 02:48:52;;;;;;;12.90;10.18;;;14.30;95.00;;;;;;4932446;28;20051;-81
2021/07/01 02:51:18;;;;;;;11.88;9.25;;;14.30;94.80;;;;;;4911521;28;20494;-82
2021/07/01 02:53:43;;;;;;;16.13;9.52;;;14.20;94.80;;;;;;4918826;28;20028;-81
2021/07/01 02:56:09;;;;;;;11.85;9.63;;;14.30;94.90;;;;;;4985743;28;20031;-81
2021/07/01 02:58:34;;;;;;;17.40;11.77;;;14.30;95.00;;;;;;4925161;28;20502;-81
2021/07/01 03:01:00;;;;;;;16.42;11.85;;;14.30;94.80;;;;;;4923197;28;20028;-81
2021/07/01 03:03:26;;;;;;;16.15;9.90;;;14.30;95.20;;;;;;4980429;28;20039;-81
2021/07/01 03:05:51;;;;;;;20.02;14.68;;;14.30;95.00;;;;;;4910427;28;20415;-82
2021/07/01 03:08:17;;;;;;;17.30;13.10;;;14.20;94.60;;;;;;4980072;28;20044;-81
2021/07/01 03:10:43;;;;;;;15.60;11.90;;;14.30;95.10;;;;;;4935682;28;20111;-80
2021/07/01 03:13:08;;;;;;;13.20;11.80;;;14.30;95.00;;;;;;4903568;28;20123;-80
2021/07/01 03:15:34;;;;;;;18.35;11.85;;;14.20;95.00;;;;;;4971115;28;20032;-81
2021/07/01 03:17:59;;;;;;;15.13;11.57;;;14.20;95.10;;;;;;4920014;28;20115;-82
2021/07/01 03:20:25;;;;;;;15.95;11.32;;;14.10;95.50;;;;;;4912938;28;20081;-81
2021/07/01 03:22:50;;;;;;;21.52;13.63;;;14.10;95.00;;;;;;4945258;28;20537;-81
2021/07/01 03:25:16;;;;;;;18.33;12.65;;;14.20;95.80;;;;;;4903247;28;20021;-81
2021/07/01 03:27:41;;;;;;;19.00;13.95;;;14.10;95.40;;;;;;4914885;28;20506;-81
2021/07/01 03:30:07;;;;;;;19.88;13.50;;;14.20;95.00;;;;;;4906856;28;20020;-81
2021/07/01 03:32:33;;;;;;;17.13;12.27;;;14.10;95.10;;;;;;4910121;28;20036;-81
2021/07/01 03:34:58;;;;;;;15.88;12.00;;;14.10;94.80;;;;;;4910483;28;20027;-81
2021/07/01 03:37:25;;;;;;;11.35;9.13;;;14.20;95.40;;;;;;4916866;28;20443;-80
2021/07/01 03:39:50;;;;;;;8.02;6.30;;;14.20;95.00;;;;;;4953425;28;20035;-80
2021/07/01 03:42:20;;;;;;;9.25;7.18;;;14.10;95.20;;;;;;4939186;28;20024;-81
2021/07/01 03:44:45;;;;;;;9.27;6.70;;;14.10;95.10;;;;;;4923341;28;20032;-80
2021/07/01 03:47:11;;;;;;;10.55;6.80;;;14.10;95.20;;;;;;4911642;28;20047;-81
2021/07/01 03:49:37;;;;;;;6.90;5.80;;;14.10;95.40;;;;;;4897145;28;20051;-81
2021/07/01 03:52:02;;;;;;;7.60;5.72;;;14.10;95.40;;;;;;4892759;28;20090;-81
2021/07/01 03:54:28;;;;;;;9.30;6.60;;;14.00;95.20;;;;;;4964324;28;20031;-81
2021/07/01 03:56:54;;;;;;;7.72;6.35;;;14.00;95.40;;;;;;4925631;28;20035;-81
2021/07/01 03:59:19;;;;;;;10.68;8.57;;;14.00;95.30;;;;;;4996900;28;20040;-81
2021/07/01 04:01:45;;;;;;;9.80;7.93;;;14.00;95.40;;;;;;4930345;28;20078;-80
2021/07/01 04:04:10;;;;;;;9.30;7.22;;;14.10;95.70;;;;;;4906355;28;20047;-80
2021/07/01 04:06:36;;;;;;;12.65;9.18;;;14.20;95.60;;;;;;4911918;28;20135;-80
2021/07/01 04:09:04;;;;;;;13.93;9.15;;;14.20;95.80;;;;;;4915085;28;20145;-80
2021/07/01 04:11:29;;;;;;;10.57;8.27;;;14.10;96.20;;;;;;4912403;28;20043;-80
2021/07/01 04:13:55;;;;;;;8.02;6.95;;;14.00;95.60;;;;;;4895332;28;20400;-80
2021/07/01 04:16:21;;;;;;;9.30;7.43;;;14.00;96.00;;;;;;4892020;28;20416;-81
2021/07/01 04:18:47;;;;;;;10.80;8.90;;;14.10;95.70;;;;;;4925773;28;20079;-80
2021/07/01 04:21:12;;;;;;;10.38;7.85;;;14.10;95.30;;;;;;4904711;28;20039;-80
2021/07/01 04:23:38;;;;;;;12.68;9.85;;;14.00;95.50;;;;;;4949639;28;20048;-80
2021/07/01 04:26:03;;;;;;;9.98;7.53;;;14.10;95.90;;;;;;4921750;28;21869;-80
2021/07/01 04:28:29;;;;;;;15.40;9.73;;;14.10;95.50;;;;;;4908128;28;20123;-80
2021/07/01 04:30:54;;;;;;;14.02;9.70;;;14.10;95.50;;;;;;4920982;28;20080;-81
2021/07/01 04:33:20;;;;;;;12.35;8.38;;;14.10;95.60;;;;;;4971540;28;20060;-80
2021/07/01 04:35:48;;;;;;;10.25;7.40;;;14.20;95.30;;;;;;4917079;28;20400;-81
2021/07/01 04:38:15;;;;;;;18.45;10.40;;;14.10;95.20;;;;;;4933248;28;20039;-81
2021/07/01 04:40:42;;;;;;;15.18;10.23;;;14.00;95.90;;;;;;4921685;28;20093;-81
2021/07/01 04:43:07;;;;;;;14.20;9.18;;;14.20;96.10;;;;;;4914766;28;20037;-81
2021/07/01 04:45:33;;;;;;;17.05;10.40;;;14.10;95.40;;;;;;4972068;28;20035;-80
2021/07/01 04:47:59;;;;;;;16.95;8.70;;;14.10;95.80;;;;;;4958818;28;20109;-80
2021/07/01 04:50:25;;;;;;;20.40;10.05;;;14.00;95.60;;;;;;4943261;28;20113;-80
2021/07/01 04:52:50;;;;;;;15.48;9.68;;;14.10;96.00;;;;;;4985440;28;20073;-80
2021/07/01 04:55:16;;;;;;;15.18;8.32;;;14.10;95.50;;;;;;4946017;28;20032;-80
2021/07/01 04:57:41;;;;;;;15.07;8.80;;;14.10;95.70;;;;;;4922709;28;20031;-80
2021/07/01 05:00:07;;;;;;;13.60;9.02;;;14.10;96.00;;;;;;4904545;28;20082;-80
2021/07/01 05:02:33;;;;;;;16.83;8.70;;;14.10;95.90;;;;;;4955355;28;20036;-80
2021/07/01 05:04:58;;;;;;;13.82;8.63;;;14.20;95.60;;;;;;4924861;28;20035;-80
2021/07/01 05:07:24;;;;;;;21.50;10.43;;;14.10;95.60;;;;;;4977042;28;20028;-80
2021/07/01 05:09:49;;;;;;;25.92;10.68;;;14.10;95.80;;;;;;4917329;28;20042;-81
2021/07/01 05:12:15;;;;;;;16.52;10.00;;;14.10;95.70;;;;;;4905070;28;20036;-80
2021/07/01 05:14:41;;;;;;;14.48;9.25;;;14.10;95.40;;;;;;4986362;28;20062;-80
2021/07/01 05:17:06;;;;;;;18.20;12.07;;;14.10;95.50;;;;;;4893159;28;20032;-78
2021/07/01 05:19:32;;;;;;;19.15;8.75;;;14.00;95.40;;;;;;4930005;28;20504;-80
2021/07/01 05:21:57;;;;;;;21.70;9.80;;;14.10;95.50;;;;;;4951782;28;20120;-80
2021/07/01 05:24:23;;;;;;;16.65;9.30;;;14.10;95.60;;;;;;4974100;28;20500;-80
2021/07/01 05:26:48;;;;;;;20.27;11.70;;;14.10;95.70;;;;;;4914779;28;20376;-80
2021/07/01 05:29:15;;;;;;;15.45;9.27;;;14.00;95.90;;;;;;4910438;28;20441;-80
2021/07/01 05:31:40;;;;;;;12.82;8.57;;;14.00;95.80;;;;;;4898682;28;20600;-80
2021/07/01 05:34:06;;;;;;;19.67;11.02;;;14.10;96.00;;;;;;4903040;28;20099;-80
2021/07/01 05:36:31;;;;;;;15.10;9.88;;;14.10;96.20;;;;;;4910862;28;20038;-79
2021/07/01 05:38:57;;;;;;;14.43;8.25;;;14.10;95.80;;;;;;4902290;28;20032;-80
2021/07/01 05:41:22;;;;;;;17.25;10.65;;;14.20;95.60;;;;;;4989735;28;20183;-80
2021/07/01 05:43:48;;;;;;;21.35;11.90;;;14.20;95.80;;;;;;4928029;28;20437;-79
2021/07/01 05:46:13;;;;;;;15.82;9.20;;;14.10;95.90;;;;;;4937550;28;20838;-79
2021/07/01 05:48:39;;;;;;;21.75;12.68;;;14.20;95.80;;;;;;4924933;28;20428;-80
2021/07/01 05:51:07;;;;;;;12.32;9.32;;;14.20;96.00;;;;;;4940093;28;20051;-79
2021/07/01 05:53:40;;;;;;;23.45;12.65;;;14.20;95.70;;;;;;4912109;28;20035;-79
2021/07/01 05:56:05;;;;;;;28.60;13.98;;;14.30;95.70;;;;;;4933874;28;20040;-79
2021/07/01 05:58:31;;;;;;;20.08;12.27;;;14.20;96.00;;;;;;4921266;29;20031;-80
2021/07/01 06:00:56;;;;;;;24.33;12.85;;;14.20;95.80;;;;;;4931989;28;20033;-79
2021/07/01 06:03:22;;;;;;;20.35;12.85;;;14.20;95.60;;;;;;4989118;28;20411;-79
2021/07/01 06:05:52;;;;;;;14.93;8.95;;;14.30;96.10;;;;;;4923876;28;20098;-78
2021/07/01 06:08:17;;;;;;;15.05;10.10;;;14.30;95.60;;;;;;4973543;28;20044;-79
2021/07/01 06:10:43;;;;;;;16.25;10.18;;;14.30;95.60;;;;;;4953899;28;20032;-80
2021/07/01 06:13:09;;;;;;;19.02;9.18;;;14.30;95.50;;;;;;4914219;28;20078;-78
2021/07/01 06:15:35;;;;;;;19.25;10.20;;;14.30;95.60;;;;;;4919088;28;20147;-78
2021/07/01 06:18:03;;;;;;;19.45;9.05;;;14.30;95.60;;;;;;4902807;28;20111;-78
2021/07/01 06:20:29;;;;;;;21.58;11.45;;;14.30;95.60;;;;;;4905330;28;20043;-78
2021/07/01 06:22:54;;;;;;;12.07;8.38;;;14.30;95.60;;;;;;4965166;28;20112;-80
2021/07/01 06:25:20;;;;;;;14.48;10.90;;;14.30;95.60;;;;;;4913150;28;20459;-79
2021/07/01 06:27:46;;;;;;;17.23;11.98;;;14.30;95.60;;;;;;4923125;28;20025;-79
2021/07/01 06:30:16;;;;;;;14.40;9.35;;;14.40;96.10;;;;;;4894883;28;20377;-79
2021/07/01 06:32:45;;;;;;;15.15;9.50;;;14.30;95.60;;;;;;4921625;28;20059;-79
2021/07/01 06:35:14;;;;;;;17.80;13.13;;;14.40;95.50;;;;;;4932773;28;20031;-79
2021/07/01 06:37:40;;;;;;;22.27;11.18;;;14.30;95.50;;;;;;4972514;28;20042;-79
2021/07/01 06:40:10;;;;;;;16.50;8.98;;;14.40;95.60;;;;;;4913358;28;20034;-79
2021/07/01 06:42:47;;;;;;;19.15;9.82;;;14.30;95.80;;;;;;4974874;28;20445;-78
2021/07/01 06:45:13;;;;;;;14.52;8.98;;;14.30;95.60;;;;;;4921556;29;20040;-78
2021/07/01 06:47:42;;;;;;;15.07;9.55;;;14.40;95.60;;;;;;4904716;28;20491;-79
2021/07/01 06:50:08;;;;;;;17.13;9.38;;;14.40;95.80;;;;;;4900085;28;20446;-78
2021/07/01 06:52:33;;;;;;;18.65;10.32;;;14.40;95.90;;;;;;4940205;28;20032;-79
2021/07/01 06:54:59;;;;;;;25.35;10.20;;;14.50;96.00;;;;;;4931708;28;20029;-79
2021/07/01 06:57:25;;;;;;;14.10;9.52;;;14.50;96.20;;;;;;4934493;28;20035;-78
2021/07/01 06:59:51;;;;;;;20.77;9.02;;;14.60;96.10;;;;;;4911802;28;20480;-78
2021/07/01 07:02:16;;;;;;;16.52;10.02;;;14.70;95.90;;;;;;4909143;28;20079;-79
2021/07/01 07:04:42;;;;;;;19.27;8.85;;;14.70;96.30;;;;;;4911162;28;20484;-78
2021/07/01 07:07:07;;;;;;;11.68;7.63;;;14.70;95.90;;;;;;4976016;28;20031;-78
2021/07/01 07:09:33;;;;;;;13.77;7.63;;;14.90;95.70;;;;;;4989907;28;20481;-78
2021/07/01 07:11:58;;;;;;;9.23;5.72;;;14.90;95.60;;;;;;4917796;28;20040;-78
2021/07/01 07:14:25;;;;;;;11.45;6.97;;;15.00;95.80;;;;;;4975885;28;20040;-79
2021/07/01 07:16:52;;;;;;;14.25;6.75;;;15.00;95.40;;;;;;4904156;28;20035;-78
2021/07/01 07:19:17;;;;;;;15.30;8.93;;;15.00;95.20;;;;;;4907142;28;20046;-80
2021/07/01 07:21:45;;;;;;;11.90;8.25;;;15.00;95.50;;;;;;4942198;28;20029;-78
2021/07/01 07:24:10;;;;;;;18.92;10.27;;;15.00;95.40;;;;;;4961488;28;20231;-78
2021/07/01 07:26:36;;;;;;;16.60;8.60;;;15.10;95.70;;;;;;4927856;28;20476;-79
2021/07/01 07:29:02;;;;;;;12.32;9.25;;;15.00;95.20;;;;;;4970390;28;20533;-80
2021/07/01 07:31:29;;;;;;;14.95;9.63;;;15.00;95.10;;;;;;4975876;28;20069;-78
2021/07/01 07:33:55;;;;;;;13.65;9.88;;;14.90;95.60;;;;;;4909573;28;20044;-79
2021/07/01 07:36:22;;;;;;;10.75;7.32;;;15.00;95.50;;;;;;4905833;28;20527;-78
2021/07/01 07:38:50;;;;;;;13.20;8.98;;;15.10;95.20;;;;;;4940142;28;20036;-77
2021/07/01 07:41:16;;;;;;;14.00;8.98;;;15.10;95.20;;;;;;4895199;28;20032;-78
2021/07/01 07:43:41;;;;;;;13.88;8.30;;;15.20;95.20;;;;;;4924310;28;20038;-78
2021/07/01 07:46:08;;;;;;;14.20;8.68;;;15.20;95.30;;;;;;4923918;28;20403;-77
2021/07/01 07:48:33;;;;;;;18.30;12.57;;;15.20;95.10;;;;;;4915441;28;20038;-79
2021/07/01 07:51:00;;;;;;;17.95;11.25;;;15.20;95.10;;;;;;4922595;28;20039;-79
2021/07/01 07:53:29;;;;;;;11.13;7.35;;;15.20;95.20;;;;;;4959470;28;20031;-79
2021/07/01 07:56:05;;;;;;;17.58;10.02;;;15.10;94.90;;;;;;4915747;28;20028;-78
2021/07/01 07:58:32;;;;;;;15.88;11.55;;;15.10;95.00;;;;;;4907821;28;20036;-79
2021/07/01 08:01:00;;;;;;;16.00;10.30;;;15.00;95.10;;;;;;4913471;28;20177;-81
2021/07/01 08:03:25;;;;;;;15.30;10.45;;;15.10;95.10;;;;;;4942133;28;20077;-78
2021/07/01 08:05:51;;;;;;;14.45;8.07;;;14.90;95.20;;;;;;4924245;28;20056;-80
2021/07/01 08:08:17;;;;;;;18.95;10.90;;;14.90;95.10;;;;;;4987110;28;20097;-79
2021/07/01 08:10:43;;;;;;;11.65;6.45;;;14.90;95.20;;;;;;4911887;28;20044;-79
2021/07/01 08:13:08;;;;;;;15.30;10.32;;;14.90;95.20;;;;;;4911951;28;20036;-79
2021/07/01 08:15:35;;;;;;;14.32;9.27;;;14.90;95.10;;;;;;4922049;28;20393;-79
2021/07/01 08:18:02;;;;;;;15.15;9.73;;;14.90;95.20;;;;;;4909722;28;20326;-78
2021/07/01 08:20:28;;;;;;;15.55;9.40;;;14.90;95.20;;;;;;4997576;28;20396;-79
2021/07/01 08:22:54;;;;;;;20.50;11.13;;;15.00;95.00;;;;;;4941993;28;20035;-80
2021/07/01 08:25:20;;;;;;;16.13;9.88;;;15.00;95.10;;;;;;4895431;28;20043;-79
2021/07/01 08:27:47;;;;;;;25.10;14.43;;;15.00;95.40;;;;;;4937412;28;20033;-79
2021/07/01 08:30:14;;;;;;;15.60;10.77;;;15.00;95.10;;;;;;4900297;28;20510;-79
2021/07/01 08:32:40;;;;;;;19.38;10.45;;;15.00;95.20;;;;;;4924712;28;20028;-79
2021/07/01 08:35:06;;;;;;;20.48;11.00;;;15.00;95.30;;;;;;4938042;28;20051;-79
2021/07/01 08:37:32;;;;;;;17.17;9.55;;;15.00;95.20;;;;;;4974197;28;20036;-79
2021/07/01 08:39:59;;;;;;;14.90;11.15;;;15.00;95.40;;;;;;4906462;28;20452;-80
2021/07/01 08:42:26;;;;;;;18.27;12.25;;;14.90;95.50;;;;;;4979027;28;20389;-81
2021/07/01 08:44:57;;;;;;;15.48;9.30;;;14.90;95.40;;;;;;4916215;28;20028;-79
2021/07/01 08:47:26;;;;;;;18.42;9.50;;;14.90;95.30;;;;;;4923874;28;20039;-80
2021/07/01 08:49:54;;;;;;;16.30;8.02;;;14.80;95.40;;;;;;4909737;28;20111;-79
2021/07/01 08:52:27;;;;;;;26.88;12.55;;;14.90;95.50;;;;;;4947094;28;20571;-79
2021/07/01 08:54:57;;;;;;;13.15;9.48;;;14.80;95.40;;;;;;4918556;28;20044;-78
2021/07/01 08:57:37;;;;;;;18.17;11.80;;;14.80;95.40;;;;;;4970318;28;20071;-79
2021/07/01 09:00:10;;;;;;;18.33;10.65;;;14.80;95.30;;;;;;4920906;28;20392;-79
2021/07/01 09:02:39;;;;;;;14.82;8.48;;;14.70;95.50;;;;;;4940533;28;20028;-81
2021/07/01 09:05:13;;;;;;;15.45;10.82;;;14.70;95.70;;;;;;4919847;28;20046;-81
2021/07/01 09:07:39;;;;;;;18.67;11.77;;;14.60;95.80;;;;;;4935087;28;20161;-80
2021/07/01 09:10:09;;;;;;;14.90;9.25;;;14.80;95.70;;;;;;4914944;28;20039;-80
2021/07/01 09:12:34;;;;;;;11.63;7.43;;;14.70;95.60;;;;;;4917774;28;20413;-79
2021/07/01 09:15:01;;;;;;;12.52;8.98;;;14.60;95.90;;;;;;4888933;28;20033;-80
2021/07/01 09:17:31;;;;;;;22.65;12.30;;;14.60;95.70;;;;;;4903545;28;20038;-79
2021/07/01 09:19:59;;;;;;;19.27;12.88;;;14.70;95.60;;;;;;4910220;28;20453;-80
2021/07/01 09:22:25;;;;;;;24.27;12.98;;;14.70;95.70;;;;;;5000787;28;20044;-80
2021/07/01 09:24:51;;;;;;;16.00;10.60;;;14.60;95.60;;;;;;4944490;28;20059;-80
2021/07/01 09:27:17;;;;;;;12.48;6.35;;;14.70;95.60;;;;;;4910684;28;20056;-80
2021/07/01 09:29:44;;;;;;;16.25;11.30;;;14.70;95.90;;;;;;4927936;28;20046;-80
2021/07/01 09:32:10;;;;;;;14.55;10.18;;;14.70;95.70;;;;;;4925462;28;20039;-80
2021/07/01 09:34:36;;;;;;;12.93;9.68;;;14.60;95.60;;;;;;4934005;28;20043;-80
2021/07/01 09:37:04;;;;;;;19.52;11.60;;;14.70;95.80;;;;;;4960131;28;20036;-79
2021/07/01 09:39:31;;;;;;;16.92;10.20;;;14.70;95.80;;;;;;4906071;28;20510;-80
2021/07/01 09:42:00;;;;;;;17.77;11.07;;;14.70;95.60;;;;;;4921237;28;20043;-80
2021/07/01 09:44:26;;;;;;;11.88;9.57;;;14.60;95.70;;;;;;4948004;28;20043;-79
2021/07/01 09:46:52;;;;;;;13.07;10.32;;;14.70;95.60;;;;;;4913884;28;20097;-80
2021/07/01 09:49:20;;;;;;;12.77;8.07;;;14.70;95.80;;;;;;4926197;28;20052;-79
2021/07/01 09:51:53;;;;;;;15.55;9.07;;;14.70;95.90;;;;;;4936283;28;20094;-79
2021/07/01 09:54:20;;;;;;;13.63;10.93;;;14.70;95.60;;;;;;4977898;28;20512;-80
2021/07/01 09:56:45;;;;;;;17.95;10.55;;;14.80;95.90;;;;;;4975495;28;20081;-80
2021/07/01 09:59:34;;;;;;;14.95;11.65;;;14.80;95.70;;;;;;4965345;28;20434;-79
2021/07/01 10:02:13;;;;;;;16.25;11.50;;;14.90;95.70;;;;;;4906837;28;20036;-80
2021/07/01 10:04:40;;;;;;;17.60;10.88;;;15.10;95.60;;;;;;4986454;28;20050;-80
2021/07/01 10:07:09;;;;;;;15.85;9.95;;;15.10;95.80;;;;;;4929827;28;20111;-82
2021/07/01 10:09:35;;;;;;;15.88;8.32;;;15.10;95.70;;;;;;4986286;28;20028;-79
2021/07/01 10:12:00;;;;;;;16.30;8.35;;;15.20;95.70;;;;;;4906647;28;20040;-80
2021/07/01 10:14:26;;;;;;;9.50;6.80;;;15.20;95.60;;;;;;4982721;28;20037;-79
2021/07/01 10:16:52;;;;;;;18.27;9.27;;;15.10;95.60;;;;;;4923010;28;20036;-80
2021/07/01 10:19:19;;;;;;;12.55;7.72;;;15.20;95.70;;;;;;4907973;28;20044;-79
2021/07/01 10:21:44;;;;;;;17.52;9.93;;;15.30;95.70;;;;;;4997047;28;20058;-80
2021/07/01 10:24:11;;;;;;;15.20;9.73;;;15.30;95.70;;;;;;4927223;28;20112;-80
2021/07/01 10:26:54;;;;;;;7.82;5.32;;;15.30;95.70;;;;;;4993992;28;20043;-79
2021/07/01 10:29:20;;;;;;;17.92;9.77;;;15.30;95.70;;;;;;4920577;28;20044;-79
2021/07/01 10:31:58;;;;;;;20.02;10.93;;;15.40;95.80;;;;;;4919436;28;20039;-79
2021/07/01 10:34:25;;;;;;;18.05;10.32;;;15.40;96.10;;;;;;4921410;28;20075;-79
2021/07/01 10:37:21;;;;;;;11.18;6.85;;;15.40;95.90;;;;;;4902304;28;20531;-80
2021/07/01 10:39:50;;;;;;;11.18;7.35;;;15.40;96.00;;;;;;4939542;28;20043;-79
2021/07/01 10:42:16;;;;;;;12.00;6.97;;;15.50;95.80;;;;;;4903219;28;20039;-79
2021/07/01 10:44:42;;;;;;;11.85;7.38;;;15.50;95.70;;;;;;4933397;28;20027;-80
2021/07/01 10:47:34;;;;;;;6.80;3.80;;;15.40;95.90;;;;;;4920165;28;20035;-79
2021/07/01 10:50:00;;;;;;;5.10;3.63;;;15.40;95.80;;;;;;4925118;28;20404;-79
2021/07/01 10:52:41;;;;;;;14.07;8.13;;;15.40;95.90;;;;;;4963249;28;20045;-80
2021/07/01 10:55:07;;;;;;;8.00;3.63;;;15.30;96.10;;;;;;4921340;28;20401;-79
2021/07/01 10:57:32;;;;;;;15.65;7.68;;;15.30;96.10;;;;;;4930250;28;20032;-79
2021/07/01 10:59:58;;;;;;;11.38;7.85;;;15.30;96.10;;;;;;4920474;28;20055;-82
2021/07/01 11:02:28;;;;;;;11.10;7.57;;;15.30;96.30;;;;;;4962234;28;20029;-79
2021/07/01 11:04:56;;;;;;;14.63;6.75;;;15.40;96.40;;;;;;4942856;28;20037;-80
2021/07/01 11:07:21;;;;;;;12.30;6.50;;;15.50;96.10;;;;;;4982783;28;20044;-81
2021/07/01 11:09:48;;;;;;;15.57;9.60;;;15.50;96.70;;;;;;4927045;28;20071;-80
2021/07/01 11:12:14;;;;;;;8.52;5.47;;;15.60;96.10;;;;;;4914790;28;20086;-79
2021/07/01 11:14:45;;;;;;;13.30;9.48;;;15.60;96.10;;;;;;4938900;28;20024;-80
2021/07/01 11:17:12;;;;;;;16.80;10.00;;;15.60;96.10;;;;;;4923708;28;20046;-81
2021/07/01 11:19:44;;;;;;;11.50;6.60;;;15.60;96.10;;;;;;4920705;28;20401;-80
2021/07/01 11:22:10;;;;;;;14.63;8.57;;;15.50;96.10;;;;;;4992577;28;20052;-81
2021/07/01 11:24:42;;;;;;;11.95;8.18;;;15.50;96.10;;;;;;4991308;28;20130;-81
2021/07/01 11:27:08;;;;;;;15.55;9.77;;;15.50;96.00;;;;;;4920473;28;20097;-80
2021/07/01 11:29:46;;;;;;;18.27;10.20;;;15.50;96.20;;;;;;4972768;28;20044;-80
2021/07/01 11:32:25;;;;;;;17.80;11.02;;;15.50;96.20;;;;;;4947948;28;20071;-81
2021/07/01 11:34:51;;;;;;;12.30;6.32;;;15.60;96.20;;;;;;5012867;28;20035;-80
2021/07/01 11:37:34;;;;;;;15.63;9.45;;;15.50;96.10;;;;;;4936333;28;20530;-80
2021/07/01 11:40:22;;;;;;;11.05;8.23;;;15.50;96.10;;;;;;4906792;28;20031;-80
2021/07/01 11:42:50;;;;;;;14.80;8.48;;;15.60;96.30;;;;;;4945683;28;20103;-80
2021/07/01 11:45:15;;;;;;;15.05;9.88;;;15.60;96.40;;;;;;4958552;28;20073;-80
2021/07/01 11:47:41;;;;;;;11.75;9.07;;;15.60;96.30;;;;;;4915662;28;20041;-80
2021/07/01 11:50:08;;;;;;;13.60;10.23;;;15.60;95.90;;;;;;4905165;28;20519;-80
2021/07/01 11:52:33;;;;;;;13.95;9.80;;;15.60;96.30;;;;;;4902410;28;20422;-80
2021/07/01 11:54:59;;;;;;;16.42;10.52;;;15.60;96.30;;;;;;4909500;28;20032;-80
2021/07/01 11:57:28;;;;;;;15.23;10.90;;;15.60;96.30;;;;;;4987821;28;20122;-80
2021/07/01 11:59:54;;;;;;;12.60;7.25;;;15.70;96.30;;;;;;4921865;28;20039;-79
2021/07/01 12:02:19;;;;;;;15.15;10.55;;;15.60;96.20;;;;;;4988821;28;20036;-79
2021/07/01 12:04:45;;;;;;;13.52;9.40;;;15.60;96.20;;;;;;4926146;28;20135;-79
2021/07/01 12:07:23;;;;;;;13.40;10.18;;;15.70;96.30;;;;;;4904169;28;20109;-80
2021/07/01 12:09:48;;;;;;;8.60;5.13;;;15.70;96.30;;;;;;4925765;28;20628;-80
2021/07/01 12:12:16;;;;;;;5.32;3.55;;;15.70;96.30;;;;;;4908675;28;20040;-79
2021/07/01 12:14:44;;;;;;;17.42;8.38;;;15.70;96.40;;;;;;4927749;28;20116;-79
2021/07/01 12:17:09;;;;;;;5.90;4.60;;;15.80;96.60;;;;;;4912739;28;20043;-80
2021/07/01 12:19:47;;;;;;;13.07;7.90;;;15.70;96.40;;;;;;4980727;28;20040;-81
2021/07/01 12:22:48;;;;;;;13.07;7.68;;;15.70;96.20;;;;;;4923245;28;20408;-80
2021/07/01 12:25:18;;;;;;;9.90;6.95;;;15.70;96.40;;;;;;4939063;28;20035;-80
2021/07/01 12:27:44;;;;;;;11.32;6.47;;;15.70;96.80;;;;;;4923709;28;20035;-79
2021/07/01 12:30:10;;;;;;;6.72;3.08;;;15.60;97.00;;;;;;4894061;28;20032;-79
2021/07/01 12:32:36;;;;;;;7.00;5.10;;;15.70;96.60;;;;;;4904519;28;20040;-80